Time;durP1;ratioP1;P1;durP2;ratioP2;P2;SDS_P1;SDS_P2;PMS_P1;PMS_P2;Temp;Humidity;BMP_temperature;BMP_pressure;BME280_temperature;BME280_humidity;BME280_pressure;Samples;Min_cycle;Max_cycle;Signal;HPM_P1;HPM_P2
2023/12/07 00:01:45;;;;;;;;;;;2.40;99.90;;;;;;5049683;28;19921;-76
2023/12/07 00:04:11;;;;;;;;;;;2.40;99.90;;;;;;5065400;28;19924;-75
2023/12/07 00:06:36;;;;;;;;;;;2.30;99.90;;;;;;5048749;28;20456;-75
2023/12/07 00:09:02;;;;;;;;;;;2.40;99.90;;;;;;5065168;28;20295;-77
2023/12/07 00:11:27;;;;;;;;;;;2.40;99.90;;;;;;5065721;28;20245;-75
2023/12/07 00:13:53;;;;;;;;;;;2.30;99.90;;;;;;5063417;28;20010;-77
2023/12/07 00:16:19;;;;;;;;;;;2.40;99.90;;;;;;5065316;28;19924;-74
2023/12/07 00:18:44;;;;;;;;;;;2.30;99.90;;;;;;5082811;28;19931;-76
2023/12/07 00:21:10;;;;;;;;;;;2.40;99.90;;;;;;5049947;28;20007;-76
2023/12/07 00:23:37;;;;;;;;;;;2.60;99.90;;;;;;5065229;28;19916;-75
2023/12/07 00:26:03;;;;;;;;;;;2.70;99.90;;;;;;5065298;28;19916;-76
2023/12/07 00:28:29;;;;;;;;;;;2.40;99.90;;;;;;5039509;28;19920;-76
2023/12/07 00:30:55;;;;;;;;;;;2.40;99.90;;;;;;5049415;28;19928;-75
2023/12/07 00:33:21;;;;;;;;;;;2.40;99.90;;;;;;5048410;28;20012;-77
2023/12/07 00:35:47;;;;;;;;;;;2.80;99.90;;;;;;5065222;28;20276;-77
2023/12/07 00:38:13;;;;;;;;;;;2.50;99.90;;;;;;5064825;28;20014;-77
2023/12/07 00:40:39;;;;;;;;;;;2.50;99.90;;;;;;5065038;28;20342;-78
2023/12/07 00:43:05;;;;;;;;;;;2.50;99.90;;;;;;5066222;28;19935;-77
2023/12/07 00:45:31;;;;;;;;;;;2.50;99.90;;;;;;5065521;28;19920;-75
2023/12/07 00:47:56;;;;;;;;;;;2.50;99.90;;;;;;5065961;28;19955;-76
2023/12/07 00:50:25;;;;;;;;;;;2.50;99.90;;;;;;5062917;28;19924;-76
2023/12/07 00:52:50;;;;;;;;;;;2.50;99.90;;;;;;5082058;28;19920;-76
2023/12/07 00:55:16;;;;;;;;;;;2.50;99.90;;;;;;5083273;28;19920;-75
2023/12/07 00:57:42;;;;;;;;;;;2.50;99.90;;;;;;5085843;28;20004;-75
2023/12/07 01:00:08;;;;;;;;;;;2.50;99.90;;;;;;5069102;28;19931;-77
2023/12/07 01:02:34;;;;;;;;;;;2.50;99.90;;;;;;5069081;28;19920;-78
2023/12/07 01:04:59;;;;;;;;;;;2.40;99.90;;;;;;5067772;28;19927;-75
2023/12/07 01:07:25;;;;;;;;;;;2.40;99.90;;;;;;5069031;28;19939;-76
2023/12/07 01:09:50;;;;;;;;;;;2.40;99.90;;;;;;5086844;28;19924;-75
2023/12/07 01:12:16;;;;;;;;;;;2.40;99.90;;;;;;5069550;28;20042;-75
2023/12/07 01:14:42;;;;;;;;;;;2.40;99.90;;;;;;5050508;28;19946;-76
2023/12/07 01:17:07;;;;;;;;;;;2.30;99.90;;;;;;5086434;28;19920;-76
2023/12/07 01:19:34;;;;;;;;;;;2.20;99.90;;;;;;5068849;28;20289;-76
2023/12/07 01:21:59;;;;;;;;;;;2.30;99.90;;;;;;5069600;28;19931;-75
2023/12/07 01:24:25;;;;;;;;;;;2.60;99.90;;;;;;5068371;28;19920;-75
2023/12/07 01:26:50;;;;;;;;;;;2.30;99.90;;;;;;5086118;28;19958;-75
2023/12/07 01:29:17;;;;;;;;;;;2.20;99.90;;;;;;5069915;28;19946;-76
2023/12/07 01:31:43;;;;;;;;;;;2.60;99.90;;;;;;5068291;28;19920;-76
2023/12/07 01:34:09;;;;;;;;;;;2.30;99.90;;;;;;5068683;28;19920;-76
2023/12/07 01:36:34;;;;;;;;;;;2.10;99.90;;;;;;5073779;28;19931;-77
2023/12/07 01:39:00;;;;;;;;;;;2.30;99.90;;;;;;5069965;28;19927;-78
2023/12/07 01:41:25;;;;;;;;;;;2.30;99.90;;;;;;5069363;28;19924;-75
2023/12/07 01:43:51;;;;;;;;;;;2.20;99.90;;;;;;5085800;28;19951;-76
2023/12/07 01:46:17;;;;;;;;;;;2.20;99.90;;;;;;5085825;28;19920;-76
2023/12/07 01:48:43;;;;;;;;;;;2.10;99.90;;;;;;5051063;28;20014;-77
2023/12/07 01:51:10;;;;;;;;;;;2.30;99.90;;;;;;5067775;28;20315;-76
2023/12/07 01:53:35;;;;;;;;;;;2.20;99.90;;;;;;5069192;28;20319;-75
2023/12/07 01:56:01;;;;;;;;;;;2.20;99.90;;;;;;5085187;28;19924;-76
2023/12/07 01:58:27;;;;;;;;;;;2.20;99.90;;;;;;5068123;28;20234;-76
2023/12/07 02:00:52;;;;;;;;;;;2.20;99.90;;;;;;5068651;28;19920;-76
2023/12/07 02:03:18;;;;;;;;;;;2.20;99.90;;;;;;5068303;28;19983;-77
2023/12/07 02:05:46;;;;;;;;;;;2.50;99.90;;;;;;5067897;28;19920;-77
2023/12/07 02:08:11;;;;;;;;;;;2.30;99.90;;;;;;5068477;28;20522;-77
2023/12/07 02:10:37;;;;;;;;;;;2.20;99.90;;;;;;5066745;28;19938;-77
2023/12/07 02:13:03;;;;;;;;;;;2.00;99.90;;;;;;5068568;28;19950;-76
2023/12/07 02:15:29;;;;;;;;;;;2.20;99.90;;;;;;5068358;28;19920;-76
2023/12/07 02:18:13;;;;;;;;;;;2.40;99.90;;;;;;5067034;28;19967;-77
2023/12/07 02:20:39;;;;;;;;;;;2.30;99.90;;;;;;5066231;28;19924;-77
2023/12/07 02:23:06;;;;;;;;;;;2.10;99.90;;;;;;5068230;28;19932;-78
2023/12/07 02:25:36;;;;;;;;;;;2.30;99.90;;;;;;5049809;28;20491;-76
2023/12/07 02:28:02;;;;;;;;;;;2.30;99.90;;;;;;5081197;28;19924;-76
2023/12/07 02:30:27;;;;;;;;;;;2.30;99.90;;;;;;5065888;28;20296;-76
2023/12/07 02:32:53;;;;;;;;;;;2.60;99.90;;;;;;5083983;28;19920;-76
2023/12/07 02:35:19;;;;;;;;;;;2.10;99.90;;;;;;5068212;28;19927;-76
2023/12/07 02:37:46;;;;;;;;;;;2.40;99.90;;;;;;5049175;28;19924;-76
2023/12/07 02:40:14;;;;;;;;;;;2.30;99.90;;;;;;5065001;28;19924;-75
2023/12/07 02:42:41;;;;;;;;;;;2.20;99.90;;;;;;5050315;28;19967;-76
2023/12/07 02:45:07;;;;;;;;;;;2.50;99.90;;;;;;5082612;28;20385;-76
2023/12/07 02:47:33;;;;;;;;;;;2.30;99.90;;;;;;5066196;28;20544;-75
2023/12/07 02:49:58;;;;;;;;;;;2.30;99.90;;;;;;5066309;28;19970;-76
2023/12/07 02:52:24;;;;;;;;;;;2.20;99.90;;;;;;5050703;28;20283;-77
2023/12/07 02:54:50;;;;;;;;;;;2.40;99.90;;;;;;5065576;28;20338;-77
2023/12/07 02:57:15;;;;;;;;;;;2.20;99.90;;;;;;5066657;28;19916;-77
2023/12/07 02:59:41;;;;;;;;;;;2.20;99.90;;;;;;5067343;28;19942;-78
2023/12/07 03:02:06;;;;;;;;;;;2.20;99.90;;;;;;5066547;28;20257;-77
2023/12/07 03:04:32;;;;;;;;;;;2.30;99.90;;;;;;5065471;28;19955;-77
2023/12/07 03:06:58;;;;;;;;;;;2.20;99.90;;;;;;5065299;28;20012;-77
2023/12/07 03:09:24;;;;;;;;;;;2.20;99.90;;;;;;5066297;28;20238;-77
2023/12/07 03:11:50;;;;;;;;;;;2.00;99.90;;;;;;5064985;28;19926;-77
2023/12/07 03:14:15;;;;;;;;;;;2.20;99.90;;;;;;5065863;28;19920;-76
2023/12/07 03:16:41;;;;;;;;;;;2.30;99.90;;;;;;5032205;28;19963;-76
2023/12/07 03:19:06;;;;;;;;;;;2.30;99.90;;;;;;5082082;28;20006;-76
2023/12/07 03:21:32;;;;;;;;;;;2.30;99.90;;;;;;5083139;28;19924;-75
2023/12/07 03:23:58;;;;;;;;;;;2.20;99.90;;;;;;5065759;28;19927;-74
2023/12/07 03:26:23;;;;;;;;;;;2.20;99.90;;;;;;5066418;28;19927;-76
2023/12/07 03:28:49;;;;;;;;;;;2.20;99.90;;;;;;5082970;28;19916;-75
2023/12/07 03:31:14;;;;;;;;;;;2.20;99.90;;;;;;5049496;28;20255;-76
2023/12/07 03:33:41;;;;;;;;;;;2.20;99.90;;;;;;5048616;28;19924;-76
2023/12/07 03:36:07;;;;;;;;;;;1.90;99.90;;;;;;5066823;28;19923;-75
2023/12/07 03:38:32;;;;;;;;;;;2.20;99.90;;;;;;5065933;28;19920;-76
2023/12/07 03:40:58;;;;;;;;;;;2.20;99.90;;;;;;5064827;28;20281;-75
2023/12/07 03:43:23;;;;;;;;;;;2.10;99.90;;;;;;5065568;28;19924;-75
2023/12/07 03:45:49;;;;;;;;;;;2.30;99.90;;;;;;5066494;28;19920;-75
2023/12/07 03:48:15;;;;;;;;;;;2.30;99.90;;;;;;5082481;28;19983;-76
2023/12/07 03:50:40;;;;;;;;;;;2.20;99.90;;;;;;5064058;28;19920;-76
2023/12/07 03:53:06;;;;;;;;;;;2.20;99.90;;;;;;5047988;28;19925;-75
2023/12/07 03:55:31;;;;;;;;;;;2.30;99.90;;;;;;5081737;28;19924;-77
2023/12/07 03:57:57;;;;;;;;;;;1.90;99.90;;;;;;5081382;28;19924;-75
2023/12/07 04:00:22;;;;;;;;;;;2.40;99.90;;;;;;5083244;28;19927;-76
2023/12/07 04:02:48;;;;;;;;;;;2.30;99.90;;;;;;5065732;28;19974;-75
2023/12/07 04:05:14;;;;;;;;;;;2.30;99.90;;;;;;5065608;28;19920;-75
2023/12/07 04:07:39;;;;;;;;;;;2.30;99.90;;;;;;5066130;28;19955;-76
2023/12/07 04:10:06;;;;;;;;;;;2.50;99.90;;;;;;5048304;28;19962;-74
2023/12/07 04:12:31;;;;;;;;;;;2.30;99.90;;;;;;5048777;28;20223;-74
2023/12/07 04:14:57;;;;;;;;;;;2.30;99.90;;;;;;5065168;28;20536;-73
2023/12/07 04:17:22;;;;;;;;;;;2.20;99.90;;;;;;5065189;28;19920;-75
2023/12/07 04:19:48;;;;;;;;;;;2.20;99.90;;;;;;5065355;28;19931;-75
2023/12/07 04:22:14;;;;;;;;;;;2.20;99.90;;;;;;5048915;28;20010;-73
2023/12/07 04:24:39;;;;;;;;;;;2.20;99.90;;;;;;5081998;28;19916;-75
2023/12/07 04:27:05;;;;;;;;;;;2.20;99.90;;;;;;5066534;28;20292;-76
2023/12/07 04:29:30;;;;;;;;;;;2.20;99.90;;;;;;5066909;28;20310;-75
2023/12/07 04:31:56;;;;;;;;;;;2.40;99.90;;;;;;5067666;28;19966;-76
2023/12/07 04:34:21;;;;;;;;;;;2.30;99.90;;;;;;5069083;28;20352;-75
2023/12/07 04:36:47;;;;;;;;;;;2.20;99.90;;;;;;5069418;28;20460;-74
2023/12/07 04:39:12;;;;;;;;;;;2.20;99.90;;;;;;5085623;28;20266;-75
2023/12/07 04:41:38;;;;;;;;;;;2.10;99.90;;;;;;5053465;28;19928;-75
2023/12/07 04:44:03;;;;;;;;;;;2.10;99.90;;;;;;5068247;28;19924;-75
2023/12/07 04:46:29;;;;;;;;;;;2.10;99.90;;;;;;5084950;28;19916;-75
2023/12/07 04:48:55;;;;;;;;;;;2.40;99.90;;;;;;5051361;28;19973;-75
2023/12/07 04:51:20;;;;;;;;;;;2.10;99.90;;;;;;5052530;28;19924;-75
2023/12/07 04:53:46;;;;;;;;;;;2.10;99.90;;;;;;5052057;28;20352;-75
2023/12/07 04:56:12;;;;;;;;;;;2.10;99.90;;;;;;5068579;28;19924;-76
2023/12/07 04:58:37;;;;;;;;;;;2.20;99.90;;;;;;5069722;28;19930;-75
2023/12/07 05:01:03;;;;;;;;;;;2.10;99.90;;;;;;5068821;28;19928;-76
2023/12/07 05:03:29;;;;;;;;;;;2.10;99.90;;;;;;5087114;28;19926;-75
2023/12/07 05:05:55;;;;;;;;;;;2.10;99.90;;;;;;5069785;28;20420;-76
2023/12/07 05:08:20;;;;;;;;;;;2.60;99.90;;;;;;5052465;28;19971;-75
2023/12/07 05:10:46;;;;;;;;;;;2.00;99.90;;;;;;5069144;28;20304;-75
2023/12/07 05:13:12;;;;;;;;;;;2.00;99.90;;;;;;5053092;28;19938;-75
2023/12/07 05:15:37;;;;;;;;;;;2.10;99.90;;;;;;5068099;28;19916;-74
2023/12/07 05:18:03;;;;;;;;;;;2.00;99.90;;;;;;5034832;28;20306;-75
2023/12/07 05:20:29;;;;;;;;;;;2.00;99.90;;;;;;5067540;28;19971;-75
2023/12/07 05:22:54;;;;;;;;;;;2.00;99.90;;;;;;5052429;28;19925;-76
2023/12/07 05:25:20;;;;;;;;;;;2.00;99.90;;;;;;5069963;28;20353;-75
2023/12/07 05:27:45;;;;;;;;;;;2.40;99.90;;;;;;5069266;28;20007;-75
2023/12/07 05:30:12;;;;;;;;;;;1.70;99.90;;;;;;5067974;28;20292;-76
2023/12/07 05:32:38;;;;;;;;;;;1.90;99.90;;;;;;5052315;28;19916;-75
2023/12/07 05:35:04;;;;;;;;;;;1.80;99.90;;;;;;5068700;28;19946;-76
2023/12/07 05:37:30;;;;;;;;;;;1.90;99.90;;;;;;5069572;28;19920;-76
2023/12/07 05:39:55;;;;;;;;;;;1.90;99.90;;;;;;5068609;28;19924;-77
2023/12/07 05:42:21;;;;;;;;;;;1.90;99.90;;;;;;5084398;28;19927;-78
2023/12/07 05:44:46;;;;;;;;;;;1.90;99.90;;;;;;5068480;28;19920;-77
2023/12/07 05:47:12;;;;;;;;;;;1.90;99.90;;;;;;5067280;28;20369;-77
2023/12/07 05:49:37;;;;;;;;;;;1.90;99.90;;;;;;5084011;28;20377;-76
2023/12/07 05:52:03;;;;;;;;;;;1.80;99.90;;;;;;5051319;28;19925;-76
2023/12/07 05:54:29;;;;;;;;;;;1.90;99.90;;;;;;5033289;28;19916;-77
2023/12/07 05:56:54;;;;;;;;;;;1.70;99.90;;;;;;5050633;28;19931;-76
2023/12/07 05:59:20;;;;;;;;;;;1.90;99.90;;;;;;5067223;28;19991;-77
2023/12/07 06:01:45;;;;;;;;;;;1.90;99.90;;;;;;5068359;28;19924;-76
2023/12/07 06:04:12;;;;;;;;;;;1.80;99.90;;;;;;5067106;28;19927;-77
2023/12/07 06:06:38;;;;;;;;;;;1.90;99.90;;;;;;5067507;28;19924;-76
2023/12/07 06:09:05;;;;;;;;;;;1.80;99.90;;;;;;5035118;28;19916;-77
2023/12/07 06:11:31;;;;;;;;;;;1.90;99.90;;;;;;5067932;28;19929;-77
2023/12/07 06:13:58;;;;;;;;;;;1.90;99.90;;;;;;5067204;28;19921;-76
2023/12/07 06:16:25;;;;;;;;;;;1.90;99.90;;;;;;5067239;28;20374;-76
2023/12/07 06:18:51;;;;;;;;;;;1.90;99.90;;;;;;5051188;28;20280;-77
2023/12/07 06:21:16;;;;;;;;;;;1.90;99.90;;;;;;5083976;28;20018;-76
2023/12/07 06:23:42;;;;;;;;;;;1.90;99.90;;;;;;5067978;28;19924;-75
2023/12/07 06:26:07;;;;;;;;;;;1.80;99.90;;;;;;5083794;28;19940;-76
2023/12/07 06:28:33;;;;;;;;;;;2.00;99.90;;;;;;5072728;28;20292;-78
2023/12/07 06:31:04;;;;;;;;;;;1.80;99.90;;;;;;5067066;28;19920;-76
2023/12/07 06:33:30;;;;;;;;;;;1.90;99.90;;;;;;5068229;28;19923;-75
2023/12/07 06:35:55;;;;;;;;;;;1.70;99.90;;;;;;5067572;28;20326;-76
2023/12/07 06:38:21;;;;;;;;;;;1.80;99.90;;;;;;5067370;28;20042;-76
2023/12/07 06:40:46;;;;;;;;;;;1.80;99.90;;;;;;5050218;28;19920;-76
2023/12/07 06:43:12;;;;;;;;;;;1.90;99.90;;;;;;5065402;28;20014;-76
2023/12/07 06:45:37;;;;;;;;;;;1.80;99.90;;;;;;5050367;28;19927;-77
2023/12/07 06:48:03;;;;;;;;;;;1.80;99.90;;;;;;5067240;28;20400;-78
2023/12/07 06:50:29;;;;;;;;;;;1.80;99.90;;;;;;5065344;28;19920;-78
2023/12/07 06:52:55;;;;;;;;;;;1.70;99.90;;;;;;5066947;28;20392;-78
2023/12/07 06:55:22;;;;;;;;;;;1.80;99.90;;;;;;5065273;28;19966;-77
2023/12/07 06:57:48;;;;;;;;;;;1.80;99.90;;;;;;5067208;28;19916;-78
2023/12/07 07:00:13;;;;;;;;;;;1.80;99.90;;;;;;5047480;28;20475;-77
2023/12/07 07:02:39;;;;;;;;;;;1.80;99.90;;;;;;5032750;28;19935;-77
2023/12/07 07:05:05;;;;;;;;;;;1.80;99.90;;;;;;5060002;28;20267;-76
2023/12/07 07:07:31;;;;;;;;;;;1.80;99.90;;;;;;5065836;28;19920;-75
2023/12/07 07:09:57;;;;;;;;;;;1.90;99.90;;;;;;5067002;28;20126;-75
2023/12/07 07:12:23;;;;;;;;;;;1.80;99.90;;;;;;5065736;28;19999;-77
2023/12/07 07:14:49;;;;;;;;;;;1.90;99.90;;;;;;5065904;28;19920;-77
2023/12/07 07:17:15;;;;;;;;;;;1.80;99.90;;;;;;5063571;28;20560;-78
2023/12/07 07:19:41;;;;;;;;;;;1.90;99.90;;;;;;5065801;28;19924;-77
2023/12/07 07:22:06;;;;;;;;;;;1.90;99.90;;;;;;5065542;28;19930;-78
2023/12/07 07:24:32;;;;;;;;;;;2.00;99.90;;;;;;5066464;28;20070;-77
2023/12/07 07:26:57;;;;;;;;;;;2.00;99.90;;;;;;5064322;28;20373;-78
2023/12/07 07:29:23;;;;;;;;;;;2.00;99.90;;;;;;5064841;28;20014;-77
2023/12/07 07:31:48;;;;;;;;;;;2.00;99.90;;;;;;5064422;28;19932;-78
2023/12/07 07:34:14;;;;;;;;;;;2.60;99.90;;;;;;5083237;28;19924;-77
2023/12/07 07:36:39;;;;;;;;;;;2.10;99.90;;;;;;5065199;28;20281;-79
2023/12/07 07:39:07;;;;;;;;;;;2.10;99.90;;;;;;5048134;28;19925;-78
2023/12/07 07:42:10;;;;;;;0.70;0.70;;;2.10;99.90;;;;;;5104034;27;20407;-79
2023/12/07 07:44:36;;;;;;;0.60;0.60;;;2.10;99.90;;;;;;5102022;28;20047;-80
2023/12/07 07:47:02;;;;;;;0.95;0.95;;;2.10;99.90;;;;;;5104807;28;20494;-79
2023/12/07 07:49:27;;;;;;;0.70;0.70;;;2.10;99.90;;;;;;5105318;28;20044;-80
2023/12/07 07:51:53;;;;;;;0.70;0.70;;;2.10;99.90;;;;;;5103567;28;20527;-79
2023/12/07 07:54:19;;;;;;;0.93;0.93;;;2.20;99.90;;;;;;5084343;28;20070;-79
2023/12/07 07:56:44;;;;;;;0.60;0.60;;;2.10;99.90;;;;;;5104130;28;20035;-78
2023/12/07 07:59:11;;;;;;;0.75;0.75;;;2.20;99.90;;;;;;5100104;28;20054;-78
2023/12/07 08:01:36;;;;;;;0.70;0.70;;;2.40;99.90;;;;;;5100960;28;20043;-80
2023/12/07 08:04:02;;;;;;;0.60;0.60;;;2.20;99.90;;;;;;5086204;28;20038;-79
2023/12/07 08:06:28;;;;;;;0.63;0.63;;;2.20;99.90;;;;;;5102910;28;20036;-79
2023/12/07 08:08:53;;;;;;;0.57;0.57;;;2.20;99.90;;;;;;5102641;28;20048;-79
2023/12/07 08:11:19;;;;;;;0.63;0.63;;;2.20;99.90;;;;;;5067254;28;20039;-78
2023/12/07 08:13:45;;;;;;;1.33;1.23;;;2.20;99.90;;;;;;5099070;28;20065;-79
2023/12/07 08:16:10;;;;;;;0.75;0.75;;;2.20;99.90;;;;;;5101936;28;20051;-79
2023/12/07 08:18:36;;;;;;;0.70;0.70;;;2.50;99.90;;;;;;5103975;28;20043;-79
2023/12/07 08:21:02;;;;;;;0.50;0.50;;;2.30;99.90;;;;;;5105565;28;20524;-79
2023/12/07 08:23:28;;;;;;;0.70;0.70;;;2.30;99.90;;;;;;5102761;28;20044;-79
2023/12/07 08:25:56;;;;;;;0.57;0.57;;;2.30;99.90;;;;;;5101117;28;20157;-79
2023/12/07 08:28:22;;;;;;;0.90;0.90;;;2.60;99.90;;;;;;5064725;28;20119;-79
2023/12/07 08:30:48;;;;;;;1.13;1.02;;;2.40;99.90;;;;;;5099762;28;20142;-79
2023/12/07 08:33:14;;;;;;;0.70;0.70;;;2.50;99.90;;;;;;5078804;28;20048;-79
2023/12/07 08:35:40;;;;;;;1.15;1.15;;;2.50;99.90;;;;;;5101508;28;20089;-79
2023/12/07 08:38:06;;;;;;;3.15;2.95;;;2.50;99.90;;;;;;5097419;28;20046;-79
2023/12/07 08:40:31;;;;;;;1.02;1.02;;;2.50;99.90;;;;;;5101807;28;20583;-79
2023/12/07 08:42:57;;;;;;;1.15;1.15;;;2.50;99.90;;;;;;5085119;28;20111;-79
2023/12/07 08:45:23;;;;;;;0.70;0.70;;;2.50;99.90;;;;;;5068414;28;20050;-79
2023/12/07 08:47:49;;;;;;;;;;;2.60;99.90;;;;;;5099681;28;20118;-79
2023/12/07 08:50:15;;;;;;;0.60;0.60;;;2.40;99.90;;;;;;5097732;28;20350;-79
2023/12/07 08:52:40;;;;;;;0.55;0.55;;;2.40;99.90;;;;;;5089674;28;20042;-79
2023/12/07 08:55:06;;;;;;;0.60;0.60;;;2.30;99.90;;;;;;5085386;28;20067;-80
2023/12/07 08:57:32;;;;;;;0.60;0.60;;;2.20;99.90;;;;;;5080318;28;20051;-79
2023/12/07 08:59:59;;;;;;;0.57;0.57;;;2.20;99.90;;;;;;5083487;28;20106;-80
2023/12/07 09:02:25;;;;;;;0.60;0.60;;;2.10;99.90;;;;;;5077916;28;20515;-79
2023/12/07 09:04:51;;;;;;;0.63;0.63;;;2.00;99.90;;;;;;5085525;28;20040;-79
2023/12/07 09:07:17;;;;;;;0.70;0.70;;;2.10;99.90;;;;;;5071086;28;20047;-79
2023/12/07 09:09:47;;;;;;;0.60;0.60;;;2.70;99.90;;;;;;5085502;28;20043;-79
2023/12/07 09:12:14;;;;;;;0.60;0.60;;;2.20;99.90;;;;;;5084666;28;20056;-80
2023/12/07 09:14:40;;;;;;;0.73;0.73;;;2.30;99.90;;;;;;5087752;28;20093;-79
2023/12/07 09:17:05;;;;;;;;;;;2.40;99.90;;;;;;5070977;28;20036;-80
2023/12/07 09:19:31;;;;;;;0.70;0.70;;;2.50;99.90;;;;;;5086754;28;19924;-79
2023/12/07 09:21:58;;;;;;;0.52;0.52;;;2.60;99.90;;;;;;5071496;28;20055;-79
2023/12/07 09:24:24;;;;;;;0.70;0.70;;;2.70;99.90;;;;;;5086657;28;20081;-79
2023/12/07 09:26:50;;;;;;;0.63;0.63;;;2.70;99.90;;;;;;5084001;28;20032;-79
2023/12/07 09:29:16;;;;;;;2.72;2.63;;;2.80;99.90;;;;;;5065453;28;20052;-80
2023/12/07 09:31:41;;;;;;;0.70;0.70;;;2.70;99.90;;;;;;5068520;28;20051;-79
2023/12/07 09:34:08;;;;;;;1.35;1.35;;;2.80;99.90;;;;;;5086357;28;20078;-79
2023/12/07 09:36:34;;;;;;;0.80;0.80;;;3.50;99.90;;;;;;5065691;28;20040;-79
2023/12/07 09:39:00;;;;;;;0.70;0.70;;;2.80;99.90;;;;;;5069058;28;20434;-79
2023/12/07 09:41:28;;;;;;;0.70;0.70;;;3.40;99.90;;;;;;5052006;28;20057;-79
2023/12/07 09:43:55;;;;;;;0.70;0.70;;;2.80;99.90;;;;;;5083148;28;20065;-79
2023/12/07 09:46:20;;;;;;;0.43;0.43;;;2.80;99.90;;;;;;5066880;28;20046;-79
2023/12/07 09:48:49;;;;;;;0.95;0.95;;;3.50;99.90;;;;;;5085615;28;20040;-79
2023/12/07 09:51:15;;;;;;;0.60;0.60;;;3.50;99.90;;;;;;5088863;28;20059;-79
2023/12/07 09:53:43;;;;;;;0.60;0.60;;;2.90;99.90;;;;;;5071476;28;20481;-79
2023/12/07 09:56:09;;;;;;;0.52;0.52;;;3.50;99.90;;;;;;5087906;28;20044;-80
2023/12/07 09:58:35;;;;;;;0.60;0.60;;;2.80;99.90;;;;;;5088013;28;20054;-79
2023/12/07 10:01:01;;;;;;;0.73;0.73;;;2.90;99.90;;;;;;5068850;28;20563;-79
2023/12/07 10:03:28;;;;;;;3.22;3.13;;;2.90;99.90;;;;;;5068244;28;20036;-80
2023/12/07 10:05:59;;;;;;;0.80;0.80;;;2.90;99.90;;;;;;5087988;28;20145;-79
2023/12/07 10:08:27;;;;;;;0.75;0.75;;;2.90;99.90;;;;;;5086501;28;20051;-80
2023/12/07 10:11:04;;;;;;;0.70;0.70;;;2.80;99.90;;;;;;5064662;28;20152;-80
2023/12/07 10:13:31;;;;;;;0.60;0.60;;;2.80;99.90;;;;;;5070892;28;20044;-80
2023/12/07 10:16:16;;;;;;;1.08;1.08;;;2.70;99.90;;;;;;5060223;28;20048;-80
2023/12/07 10:18:42;;;;;;;0.50;0.50;;;2.80;99.90;;;;;;5054147;28;20071;-80
2023/12/07 10:21:11;;;;;;;1.13;1.13;;;2.70;99.90;;;;;;5081695;28;20130;-79
2023/12/07 10:23:38;;;;;;;1.33;1.33;;;2.80;99.90;;;;;;5080699;28;20036;-80
2023/12/07 10:26:06;;;;;;;0.60;0.60;;;2.70;99.90;;;;;;5083873;28;20039;-80
2023/12/07 10:28:35;;;;;;;0.60;0.60;;;2.70;99.90;;;;;;5062489;28;20040;-79
2023/12/07 10:31:01;;;;;;;1.20;1.08;;;2.70;99.90;;;;;;5084954;28;20519;-80
2023/12/07 10:33:27;;;;;;;0.60;0.60;;;2.70;99.90;;;;;;5086810;28;20043;-80
2023/12/07 10:35:52;;;;;;;0.70;0.70;;;2.60;99.90;;;;;;5069459;28;20402;-80
2023/12/07 10:38:19;;;;;;;1.05;1.05;;;2.60;99.90;;;;;;5087034;28;20040;-79
2023/12/07 10:40:47;;;;;;;0.70;0.70;;;2.60;99.90;;;;;;5083163;28;20052;-80
2023/12/07 10:43:15;;;;;;;0.60;0.60;;;2.70;99.90;;;;;;5084830;28;20044;-80
2023/12/07 10:45:43;;;;;;;0.60;0.60;;;2.70;99.90;;;;;;5065258;28;20039;-80
2023/12/07 10:48:10;;;;;;;1.27;1.27;;;2.80;99.90;;;;;;5086547;28;20112;-80
2023/12/07 10:50:46;;;;;;;0.68;0.68;;;2.80;99.90;;;;;;5063531;28;20055;-79
2023/12/07 10:53:21;;;;;;;1.42;1.42;;;2.90;99.90;;;;;;5078536;28;20392;-79
2023/12/07 10:55:55;;;;;;;0.90;0.90;;;2.90;99.90;;;;;;5081596;28;20507;-79
2023/12/07 10:58:25;;;;;;;0.80;0.80;;;3.00;99.90;;;;;;5080893;28;20100;-79
2023/12/07 11:00:52;;;;;;;0.60;0.60;;;3.00;99.90;;;;;;5073179;28;20048;-80
2023/12/07 11:03:18;;;;;;;0.70;0.70;;;3.00;99.90;;;;;;5060020;28;20136;-80
2023/12/07 11:05:47;;;;;;;0.95;0.95;;;3.00;99.90;;;;;;5068376;28;20044;-80
2023/12/07 11:08:32;;;;;;;0.80;0.80;;;3.00;99.90;;;;;;5082222;28;20565;-79
2023/12/07 11:11:14;;;;;;;0.60;0.60;;;3.10;99.90;;;;;;5082882;28;20056;-79
2023/12/07 11:13:49;;;;;;;2.25;2.15;;;3.10;99.90;;;;;;5084578;28;20052;-79
2023/12/07 11:16:15;;;;;;;0.70;0.70;;;3.20;99.90;;;;;;5085002;28;20047;-79
2023/12/07 11:18:40;;;;;;;0.80;0.80;;;3.30;99.90;;;;;;5079040;28;20040;-79
2023/12/07 11:21:06;;;;;;;1.33;1.27;;;3.30;99.90;;;;;;5077018;28;20097;-78
2023/12/07 11:23:32;;;;;;;0.80;0.80;;;3.30;99.90;;;;;;5058936;28;20548;-79
2023/12/07 11:25:58;;;;;;;;;;;3.40;99.90;;;;;;5082857;28;20048;-79
2023/12/07 11:28:38;;;;;;;3.42;1.27;;;3.50;99.90;;;;;;5081318;28;20010;-79
2023/12/07 11:31:07;;;;;;;0.95;0.95;;;3.50;99.90;;;;;;5060536;28;20117;-79
2023/12/07 11:33:33;;;;;;;0.60;0.60;;;3.60;99.90;;;;;;5064879;28;20381;-80
2023/12/07 11:36:01;;;;;;;0.70;0.70;;;4.00;99.90;;;;;;5057272;28;20055;-80
2023/12/07 11:38:27;;;;;;;0.77;0.77;;;3.70;99.90;;;;;;5076790;28;20465;-79
2023/12/07 11:40:57;;;;;;;0.70;0.70;;;3.70;99.90;;;;;;5068248;28;20059;-80
2023/12/07 11:43:32;;;;;;;1.15;1.15;;;3.70;99.90;;;;;;5069732;28;20027;-79
2023/12/07 11:45:59;;;;;;;0.45;0.45;;;3.70;99.90;;;;;;5082162;28;20576;-80
2023/12/07 11:48:25;;;;;;;0.70;0.70;;;3.70;99.90;;;;;;5065427;28;20127;-80
2023/12/07 11:51:07;;;;;;;0.60;0.60;;;3.80;99.90;;;;;;5067917;28;20135;-80
2023/12/07 11:53:35;;;;;;;1.40;1.30;;;3.80;99.90;;;;;;5084340;28;20040;-80
2023/12/07 11:56:06;;;;;;;0.98;0.98;;;3.80;99.90;;;;;;5085654;28;20048;-79
2023/12/07 11:58:34;;;;;;;0.68;0.55;;;3.80;99.90;;;;;;5085729;28;20052;-79
2023/12/07 12:01:01;;;;;;;0.60;0.60;;;3.80;99.90;;;;;;5083793;28;20055;-79
2023/12/07 12:03:28;;;;;;;0.50;0.50;;;3.80;99.90;;;;;;5082612;28;20036;-79
2023/12/07 12:05:55;;;;;;;0.68;0.68;;;3.80;99.90;;;;;;5047945;28;20079;-80
2023/12/07 12:08:21;;;;;;;0.60;0.60;;;3.80;99.90;;;;;;5064202;28;20040;-79
2023/12/07 12:10:49;;;;;;;;;;;3.90;99.90;;;;;;5084353;28;20081;-79
2023/12/07 12:13:15;;;;;;;;;;;3.90;99.90;;;;;;5082308;28;19920;-80
2023/12/07 12:15:41;;;;;;;;;;;3.90;99.90;;;;;;5082154;28;19920;-80
2023/12/07 12:18:07;;;;;;;;;;;3.90;99.90;;;;;;5085051;28;20318;-80
2023/12/07 12:20:33;;;;;;;;;;;4.00;99.90;;;;;;5082710;28;21561;-80
2023/12/07 12:23:00;;;;;;;;;;;4.00;99.90;;;;;;5074113;28;19920;-81
2023/12/07 12:25:28;;;;;;;;;;;4.40;99.90;;;;;;5086274;28;19935;-83
2023/12/07 12:27:55;;;;;;;;;;;4.00;99.90;;;;;;5087809;28;19916;-80
2023/12/07 12:30:22;;;;;;;;;;;4.00;99.90;;;;;;5090319;28;20373;-80
2023/12/07 12:32:48;;;;;;;;;;;4.10;99.90;;;;;;5083738;28;20432;-81
2023/12/07 12:35:14;;;;;;;;;;;4.00;99.90;;;;;;5082167;28;20066;-81
2023/12/07 12:37:43;;;;;;;;;;;4.00;99.90;;;;;;5059867;28;20372;-80
2023/12/07 12:40:15;;;;;;;;;;;4.00;99.90;;;;;;5069639;28;19974;-80
2023/12/07 12:42:45;;;;;;;;;;;3.90;99.90;;;;;;5068539;28;20351;-80
2023/12/07 12:45:11;;;;;;;;;;;3.90;99.90;;;;;;5041336;28;19924;-80
2023/12/07 12:47:38;;;;;;;;;;;3.90;99.90;;;;;;5049329;28;21445;-82
2023/12/07 12:50:06;;;;;;;;;;;3.80;99.90;;;;;;5046230;28;20289;-82
2023/12/07 12:52:35;;;;;;;;;;;3.90;99.90;;;;;;5060026;28;20031;-80
2023/12/07 12:55:02;;;;;;;;;;;3.80;99.90;;;;;;5066899;28;19924;-81
2023/12/07 12:57:28;;;;;;;;;;;3.70;99.90;;;;;;5088956;28;20369;-81
2023/12/07 12:59:54;;;;;;;;;;;3.70;99.90;;;;;;5084692;28;19919;-79
2023/12/07 13:02:19;;;;;;;;;;;3.60;99.90;;;;;;5081993;28;19972;-79
2023/12/07 13:04:45;;;;;;;;;;;3.60;99.90;;;;;;5080444;28;19951;-79
2023/12/07 13:07:14;;;;;;;;;;;3.40;99.90;;;;;;5078158;28;19924;-82
2023/12/07 13:09:40;;;;;;;;;;;3.20;99.90;;;;;;5080956;28;19916;-82
2023/12/07 13:12:06;;;;;;;;;;;3.50;99.90;;;;;;5080162;28;19961;-81
2023/12/07 13:14:35;;;;;;;;;;;2.90;99.90;;;;;;5078878;28;19920;-81
2023/12/07 13:17:01;;;;;;;;;;;2.70;99.90;;;;;;5073256;28;19986;-82
2023/12/07 13:19:26;;;;;;;;;;;2.60;99.90;;;;;;5080216;28;19934;-82
2023/12/07 13:21:52;;;;;;;;;;;2.40;99.90;;;;;;5083169;28;19946;-83
2023/12/07 13:24:18;;;;;;;;;;;2.30;99.90;;;;;;5066661;28;19928;-82
2023/12/07 13:26:43;;;;;;;;;;;2.20;99.90;;;;;;5081364;28;19927;-84
2023/12/07 13:29:10;;;;;;;;;;;2.20;99.90;;;;;;5062467;28;19920;-83
2023/12/07 13:31:35;;;;;;;;;;;2.20;99.90;;;;;;5081138;28;20357;-82
2023/12/07 13:34:01;;;;;;;;;;;2.20;99.90;;;;;;5083574;28;19935;-83
2023/12/07 13:36:29;;;;;;;;;;;2.00;99.90;;;;;;5046620;28;19923;-80
2023/12/07 13:38:55;;;;;;;;;;;1.90;99.90;;;;;;5081823;28;19926;-81
2023/12/07 13:41:21;;;;;;;;;;;1.90;99.90;;;;;;5067855;28;19920;-84
2023/12/07 13:43:48;;;;;;;;;;;1.80;99.90;;;;;;5086752;28;19923;-81
2023/12/07 13:46:14;;;;;;;;;;;1.70;99.90;;;;;;5086552;28;20247;-81
2023/12/07 13:48:39;;;;;;;;;;;1.60;99.90;;;;;;5089160;28;19916;-81
2023/12/07 13:51:05;;;;;;;;;;;1.60;99.90;;;;;;5085895;28;19915;-82
2023/12/07 13:53:31;;;;;;;;;;;1.60;99.90;;;;;;5062743;28;19920;-81
2023/12/07 13:55:57;;;;;;;;;;;1.50;99.90;;;;;;5084153;28;19930;-82